Time;durP1;ratioP1;P1;durP2;ratioP2;P2;SDS_P1;SDS_P2;PMS_P1;PMS_P2;Temp;Humidity;BMP_temperature;BMP_pressure;BME280_temperature;BME280_humidity;BME280_pressure;Samples;Min_cycle;Max_cycle;Signal;HPM_P1;HPM_P2
2022/01/22 00:00:31;;;;;;;17.88;2.05;;;6.30;99.90;;;;;;5044059;28;21313;-68
2022/01/22 00:02:57;;;;;;;18.27;2.20;;;6.30;99.90;;;;;;5042519;28;20053;-69
2022/01/22 00:05:22;;;;;;;17.02;2.58;;;6.40;99.90;;;;;;5038331;28;20148;-69
2022/01/22 00:07:49;;;;;;;16.30;2.90;;;6.40;99.90;;;;;;5033093;28;20037;-69
2022/01/22 00:10:19;;;;;;;13.55;2.28;;;6.40;99.90;;;;;;5037762;28;20104;-67
2022/01/22 00:15:21;;;;;;;14.75;2.15;;;6.40;99.90;;;;;;5037427;28;20458;-70
2022/01/22 00:17:48;;;;;;;14.05;2.65;;;6.40;99.90;;;;;;5035273;28;20041;-69
2022/01/22 00:20:15;;;;;;;19.90;2.75;;;6.40;99.90;;;;;;5047493;28;20052;-69
2022/01/22 00:22:42;;;;;;;16.38;2.58;;;6.40;99.90;;;;;;5040788;28;20098;-69
2022/01/22 00:25:09;;;;;;;14.93;2.30;;;6.40;99.90;;;;;;5042814;28;20481;-69
2022/01/22 00:27:37;;;;;;;12.75;2.20;;;6.40;99.90;;;;;;5034282;28;20350;-69
2022/01/22 00:30:07;;;;;;;18.35;2.22;;;6.40;99.90;;;;;;5041864;28;20037;-69
2022/01/22 00:32:33;;;;;;;16.95;3.00;;;6.40;99.90;;;;;;5036057;28;20091;-69
2022/01/22 00:34:59;;;;;;;14.45;2.60;;;6.40;99.90;;;;;;5042466;28;20048;-68
2022/01/22 00:37:24;;;;;;;19.85;2.47;;;6.50;99.90;;;;;;5041316;28;20056;-69
2022/01/22 00:39:50;;;;;;;16.73;2.70;;;6.50;99.90;;;;;;5037035;28;20042;-69
2022/01/22 00:42:16;;;;;;;11.00;2.13;;;6.50;99.90;;;;;;5035329;28;20091;-69
2022/01/22 00:44:43;;;;;;;18.40;2.47;;;6.50;99.90;;;;;;5035433;28;20361;-68
2022/01/22 00:47:09;;;;;;;13.02;2.03;;;6.50;99.90;;;;;;5041778;28;20128;-69
2022/01/22 00:49:36;;;;;;;17.23;2.40;;;6.50;99.90;;;;;;5042710;28;20528;-69
2022/01/22 00:52:04;;;;;;;19.05;2.55;;;6.50;99.90;;;;;;5045056;28;20057;-69
2022/01/22 00:54:29;;;;;;;12.02;2.22;;;6.50;99.90;;;;;;5038899;28;20045;-69
2022/01/22 00:56:56;;;;;;;14.32;2.17;;;6.50;99.90;;;;;;5045974;28;20283;-70
2022/01/22 00:59:21;;;;;;;12.25;2.28;;;6.60;99.90;;;;;;5040750;28;20068;-69
2022/01/22 01:01:47;;;;;;;15.15;2.40;;;6.50;99.90;;;;;;5035484;28;20071;-69
2022/01/22 01:04:13;;;;;;;16.80;2.10;;;6.50;99.90;;;;;;5036689;28;20041;-69
2022/01/22 01:06:39;;;;;;;16.15;2.55;;;6.60;99.90;;;;;;5039760;28;20045;-69
2022/01/22 01:09:07;;;;;;;18.10;2.20;;;6.60;99.90;;;;;;5035123;28;20129;-69
2022/01/22 01:11:36;;;;;;;12.25;2.53;;;6.60;99.90;;;;;;5035262;28;20064;-68
2022/01/22 01:14:04;;;;;;;16.05;2.22;;;6.50;99.90;;;;;;5032900;28;20049;-69
2022/01/22 01:32:55;;;;;;;19.90;2.58;;;6.60;99.90;;;;;;5033908;28;20458;-69
2022/01/22 01:35:21;;;;;;;14.73;2.50;;;6.60;99.90;;;;;;5046569;28;20041;-70
2022/01/22 01:37:48;;;;;;;15.68;2.72;;;6.60;99.90;;;;;;5033112;28;21242;-69
2022/01/22 01:40:18;;;;;;;13.20;2.33;;;6.60;99.90;;;;;;5040974;28;20396;-69
2022/01/22 01:43:06;;;;;;;12.90;2.42;;;6.60;99.90;;;;;;5029002;28;20033;-69
2022/01/22 01:45:30;;;;;;;11.15;2.20;;;6.60;99.90;;;;;;5037010;28;20099;-69
2022/01/22 01:48:04;;;;;;;17.95;2.45;;;6.60;99.90;;;;;;5042683;28;20069;-69
2022/01/22 01:50:31;;;;;;;22.55;2.60;;;6.60;99.90;;;;;;5043303;28;20089;-70
2022/01/22 01:53:13;;;;;;;15.20;2.90;;;6.60;99.90;;;;;;5044822;28;20049;-69
2022/01/22 01:56:04;;;;;;;11.13;2.05;;;6.60;99.90;;;;;;5053268;28;20120;-69
2022/01/22 01:58:30;;;;;;;15.13;2.10;;;6.60;99.90;;;;;;5041622;28;20074;-70
2022/01/22 02:01:03;;;;;;;13.52;2.47;;;6.60;99.90;;;;;;5046941;28;20077;-69
2022/01/22 02:03:29;;;;;;;12.73;2.00;;;6.60;99.90;;;;;;5041139;28;20049;-70
2022/01/22 02:05:54;;;;;;;19.05;2.55;;;6.70;99.90;;;;;;5045477;28;20037;-69
2022/01/22 02:08:20;;;;;;;9.85;2.33;;;6.60;99.90;;;;;;5043124;28;20100;-69
2022/01/22 02:10:55;;;;;;;16.77;2.22;;;6.60;99.90;;;;;;5043042;28;20436;-69
2022/01/22 02:24:45;;;;;;;12.30;2.10;;;6.60;99.90;;;;;;5050224;28;20052;-69
2022/01/22 02:27:11;;;;;;;11.75;2.55;;;6.60;99.90;;;;;;5042487;28;20041;-69
2022/01/22 02:29:36;;;;;;;11.13;2.20;;;6.50;99.90;;;;;;5045571;28;20052;-69
2022/01/22 02:34:55;;;;;;;19.02;2.80;;;6.50;99.90;;;;;;5039124;28;20079;-70
2022/01/22 02:37:23;;;;;;;10.85;2.05;;;6.50;99.90;;;;;;5048937;28;20072;-69
2022/01/22 02:40:03;;;;;;;15.52;2.33;;;6.50;99.90;;;;;;5037107;28;20368;-69
2022/01/22 02:42:32;;;;;;;16.35;2.47;;;6.50;99.90;;;;;;5040419;28;20167;-69
2022/01/22 02:44:58;;;;;;;15.15;2.33;;;6.50;99.90;;;;;;5039785;28;20053;-70
2022/01/22 02:47:24;;;;;;;15.65;2.60;;;6.50;99.90;;;;;;5041597;28;20052;-69
2022/01/22 02:49:50;;;;;;;13.30;2.40;;;6.50;99.90;;;;;;5041213;28;20056;-69
2022/01/22 02:52:17;;;;;;;12.35;2.30;;;6.50;99.90;;;;;;5045913;28;20034;-69
2022/01/22 02:54:44;;;;;;;11.13;2.03;;;6.50;99.90;;;;;;5041749;28;20037;-69
2022/01/22 02:57:11;;;;;;;16.20;3.22;;;6.50;99.90;;;;;;5045720;28;20622;-69
2022/01/22 02:59:37;;;;;;;11.75;2.17;;;6.50;99.90;;;;;;5046606;28;20049;-69
2022/01/22 03:02:04;;;;;;;9.35;1.95;;;6.50;99.90;;;;;;5043973;28;20045;-69
2022/01/22 03:04:30;;;;;;;13.90;2.08;;;6.50;99.90;;;;;;5044101;28;20055;-69
2022/01/22 03:06:55;;;;;;;11.63;1.75;;;6.50;99.90;;;;;;5043405;28;20510;-69
2022/01/22 03:09:28;;;;;;;10.63;1.80;;;6.50;99.90;;;;;;5045900;28;20132;-68
2022/01/22 03:22:21;;;;;;;10.88;1.63;;;6.40;99.90;;;;;;5043378;28;20056;-68
2022/01/22 03:27:33;;;;;;;10.48;1.52;;;6.50;99.90;;;;;;5040525;28;20441;-69
2022/01/22 03:29:59;;;;;;;10.23;1.63;;;6.50;99.90;;;;;;5038772;28;20056;-68
2022/01/22 03:32:30;;;;;;;8.40;1.63;;;6.50;99.90;;;;;;5041216;28;20065;-68
2022/01/22 03:35:00;;;;;;;6.43;1.45;;;6.50;99.90;;;;;;5035513;28;20101;-68
2022/01/22 03:37:26;;;;;;;8.85;1.67;;;6.50;99.90;;;;;;5043225;28;20042;-67
2022/01/22 03:39:53;;;;;;;7.82;1.85;;;6.50;99.90;;;;;;5042231;28;20036;-68
2022/01/22 03:42:19;;;;;;;11.18;2.13;;;6.40;99.90;;;;;;5042307;28;21547;-67
2022/01/22 03:44:45;;;;;;;9.60;1.75;;;6.40;99.90;;;;;;5032277;28;20044;-68
2022/01/22 03:47:10;;;;;;;12.20;1.85;;;6.40;99.90;;;;;;5036585;28;20056;-68
2022/01/22 03:49:36;;;;;;;11.75;2.30;;;6.40;99.90;;;;;;5037827;28;20434;-68
2022/01/22 03:52:02;;;;;;;10.95;2.22;;;6.40;99.90;;;;;;5040207;28;20085;-69
2022/01/22 03:54:28;;;;;;;12.90;2.10;;;6.40;99.90;;;;;;5046794;28;20064;-68
2022/01/22 03:56:53;;;;;;;6.95;1.83;;;6.40;99.90;;;;;;5048458;28;20109;-68
2022/01/22 03:59:19;;;;;;;7.68;2.10;;;6.30;99.90;;;;;;5045520;28;20062;-68
2022/01/22 04:04:30;;;;;;;12.63;2.03;;;6.40;99.90;;;;;;5040332;28;20060;-68
2022/01/22 04:09:32;;;;;;;10.45;2.00;;;6.40;99.90;;;;;;5041653;28;20059;-68
2022/01/22 04:12:00;;;;;;;10.45;1.85;;;6.40;99.90;;;;;;5043759;28;20048;-67
2022/01/22 04:14:31;;;;;;;9.13;2.25;;;6.40;99.90;;;;;;5042376;28;20417;-68
2022/01/22 04:17:25;;;;;;;10.95;1.90;;;6.40;99.90;;;;;;5042991;28;20057;-68
2022/01/22 04:25:15;;;;;;;12.63;2.90;;;6.40;99.90;;;;;;5048830;28;20044;-68
2022/01/22 04:27:41;;;;;;;11.20;2.60;;;6.40;99.90;;;;;;5044544;28;20437;-68
2022/01/22 04:30:07;;;;;;;8.52;2.60;;;6.40;99.90;;;;;;5041756;28;20056;-69
2022/01/22 04:32:33;;;;;;;10.05;2.40;;;6.40;99.90;;;;;;5045987;28;20044;-68
2022/01/22 04:35:00;;;;;;;11.98;2.50;;;6.40;99.90;;;;;;5054451;28;20373;-67
2022/01/22 04:37:25;;;;;;;11.93;2.35;;;6.40;99.90;;;;;;5043050;28;20063;-68
2022/01/22 04:39:51;;;;;;;9.95;2.20;;;6.40;99.90;;;;;;5038514;28;20496;-68
2022/01/22 04:42:19;;;;;;;8.80;2.30;;;6.40;99.90;;;;;;5046363;28;20037;-68
2022/01/22 04:44:57;;;;;;;12.43;2.13;;;6.40;99.90;;;;;;5043780;28;20132;-68
2022/01/22 04:47:41;;;;;;;7.00;1.60;;;6.40;99.90;;;;;;5044871;28;20052;-69
2022/01/22 04:55:36;;;;;;;4.50;1.35;;;6.40;99.90;;;;;;5038562;28;20174;-67
2022/01/22 04:58:03;;;;;;;7.32;1.48;;;6.30;99.90;;;;;;5047893;28;20146;-68
2022/01/22 05:00:33;;;;;;;5.93;1.45;;;6.30;99.90;;;;;;5043329;28;20115;-68
2022/01/22 05:02:59;;;;;;;10.20;1.77;;;6.30;99.90;;;;;;5040833;28;20106;-68
2022/01/22 05:05:26;;;;;;;7.75;1.85;;;6.40;99.90;;;;;;5049865;28;20190;-68
2022/01/22 05:07:52;;;;;;;10.15;1.90;;;6.40;99.90;;;;;;5045253;28;20044;-68
2022/01/22 05:10:18;;;;;;;5.93;1.90;;;6.40;99.90;;;;;;5048562;28;20057;-68
2022/01/22 05:12:44;;;;;;;5.65;1.65;;;6.40;99.90;;;;;;5048414;28;20436;-67
2022/01/22 05:15:10;;;;;;;7.40;1.90;;;6.40;99.90;;;;;;5049473;28;20161;-67
2022/01/22 05:17:39;;;;;;;8.18;1.73;;;6.40;99.90;;;;;;5042801;28;20087;-68
2022/01/22 05:20:21;;;;;;;10.93;2.17;;;6.40;99.90;;;;;;5048429;28;20090;-67
2022/01/22 05:25:57;;;;;;;5.45;1.75;;;6.40;99.90;;;;;;5050264;28;20045;-67
2022/01/22 05:33:30;;;;;;;6.57;1.77;;;6.40;99.90;;;;;;5041206;28;20388;-68
2022/01/22 05:38:40;;;;;;;5.40;1.70;;;6.40;99.90;;;;;;5044162;28;21569;-67
2022/01/22 05:41:05;;;;;;;7.13;1.67;;;6.40;99.90;;;;;;5049776;28;20123;-68
2022/01/22 05:43:31;;;;;;;6.68;1.52;;;6.40;99.90;;;;;;5035017;28;20041;-67
2022/01/22 05:45:56;;;;;;;7.82;1.67;;;6.40;99.90;;;;;;5038222;28;20056;-68
2022/01/22 05:48:22;;;;;;;6.40;1.80;;;6.40;99.90;;;;;;5031620;28;20523;-67
2022/01/22 05:50:52;;;;;;;6.38;2.00;;;6.40;99.90;;;;;;5038324;28;20444;-68
2022/01/22 06:01:05;;;;;;;8.88;2.40;;;6.40;99.90;;;;;;5036075;28;20448;-68
2022/01/22 06:03:31;;;;;;;10.02;3.20;;;6.40;99.90;;;;;;5036037;28;20087;-67
2022/01/22 06:05:56;;;;;;;9.27;2.47;;;6.40;99.90;;;;;;5043837;28;20088;-67
2022/01/22 06:08:22;;;;;;;14.35;2.65;;;6.40;99.90;;;;;;5036664;28;20329;-68
2022/01/22 06:10:54;;;;;;;9.35;2.58;;;6.40;99.90;;;;;;5037161;28;20037;-68
2022/01/22 06:13:22;;;;;;;9.50;2.35;;;6.40;99.90;;;;;;5038511;28;20406;-67
2022/01/22 06:15:47;;;;;;;6.85;2.30;;;6.30;99.90;;;;;;5042788;28;20101;-68
2022/01/22 06:18:13;;;;;;;7.40;2.50;;;6.40;99.90;;;;;;5032700;28;20416;-68
2022/01/22 06:20:38;;;;;;;6.97;2.20;;;6.40;99.90;;;;;;5040877;28;20049;-68
2022/01/22 06:23:04;;;;;;;7.20;2.08;;;6.40;99.90;;;;;;5039589;28;20045;-68
2022/01/22 06:25:30;;;;;;;9.02;2.10;;;6.40;99.90;;;;;;5038416;28;20047;-67
2022/01/22 06:27:56;;;;;;;9.32;1.73;;;6.40;99.90;;;;;;5040974;28;20430;-68
2022/01/22 06:30:21;;;;;;;5.65;1.98;;;6.40;99.90;;;;;;5044719;28;20052;-68
2022/01/22 06:32:47;;;;;;;5.38;1.85;;;6.40;99.90;;;;;;5039563;28;20060;-67
2022/01/22 06:35:13;;;;;;;6.78;1.70;;;6.30;99.90;;;;;;5043253;28;20037;-68
2022/01/22 06:37:39;;;;;;;7.80;2.00;;;6.40;99.90;;;;;;5039454;28;20107;-67
2022/01/22 06:42:31;;;;;;;8.30;2.28;;;6.40;99.90;;;;;;5041489;28;20068;-67
2022/01/22 06:44:59;;;;;;;7.65;2.50;;;6.40;99.90;;;;;;5030763;28;20044;-67
2022/01/22 06:47:26;;;;;;;6.30;2.40;;;6.40;99.90;;;;;;5044267;28;20049;-68
2022/01/22 06:49:52;;;;;;;9.00;2.42;;;6.40;99.90;;;;;;5042309;28;20041;-68
2022/01/22 06:52:18;;;;;;;9.50;2.47;;;6.40;99.90;;;;;;5042506;28;20160;-68
2022/01/22 06:54:44;;;;;;;8.13;2.78;;;6.40;99.90;;;;;;5037018;28;20128;-68
2022/01/22 06:57:10;;;;;;;10.10;2.42;;;6.40;99.90;;;;;;5045511;28;20063;-68
2022/01/22 06:59:36;;;;;;;7.78;2.60;;;6.40;99.90;;;;;;5043327;28;20381;-68
2022/01/22 07:02:02;;;;;;;10.65;2.67;;;6.40;99.90;;;;;;5038637;28;20057;-68
2022/01/22 07:04:31;;;;;;;10.50;3.25;;;6.40;99.90;;;;;;5035691;28;20087;-68
2022/01/22 07:06:57;;;;;;;9.20;2.70;;;6.30;99.90;;;;;;5037680;28;20041;-68
2022/01/22 07:09:23;;;;;;;9.13;2.80;;;6.40;99.90;;;;;;5036369;28;20046;-68
2022/01/22 07:11:49;;;;;;;9.45;2.55;;;6.40;99.90;;;;;;5049966;28;20052;-68
2022/01/22 07:14:15;;;;;;;13.20;2.45;;;6.40;99.90;;;;;;5035618;28;20037;-68
2022/01/22 07:16:41;;;;;;;7.50;2.25;;;6.30;99.90;;;;;;5048618;28;20503;-68
2022/01/22 07:19:06;;;;;;;9.15;2.90;;;6.40;99.90;;;;;;5041024;28;20060;-68
2022/01/22 07:21:32;;;;;;;7.53;2.70;;;6.40;99.90;;;;;;5043772;28;20052;-68
2022/01/22 07:26:30;;;;;;;8.43;2.85;;;6.30;99.90;;;;;;5040656;28;20485;-69
2022/01/22 07:28:56;;;;;;;9.57;2.22;;;6.30;99.90;;;;;;5039401;28;20159;-67
2022/01/22 07:31:23;;;;;;;9.20;2.05;;;6.30;99.90;;;;;;5039417;28;20183;-67
2022/01/22 07:33:49;;;;;;;9.68;2.42;;;6.30;99.90;;;;;;5054474;28;20052;-67
2022/01/22 07:36:15;;;;;;;8.88;2.13;;;6.30;99.90;;;;;;5046531;28;20043;-67
2022/01/22 07:38:40;;;;;;;8.88;2.20;;;6.30;99.90;;;;;;5045242;28;20075;-67
2022/01/22 07:41:07;;;;;;;7.95;2.38;;;6.30;99.90;;;;;;5049794;28;20144;-67
2022/01/22 07:43:34;;;;;;;7.47;2.15;;;6.30;99.90;;;;;;5047817;28;20069;-67
2022/01/22 07:46:00;;;;;;;6.35;1.95;;;6.40;99.90;;;;;;5048970;28;20041;-67
2022/01/22 07:48:26;;;;;;;11.82;2.65;;;6.30;99.90;;;;;;5049235;28;20371;-67
2022/01/22 07:50:52;;;;;;;7.25;1.80;;;6.40;99.90;;;;;;5045535;28;20131;-67
2022/01/22 07:53:17;;;;;;;9.35;2.33;;;6.40;99.90;;;;;;5040087;28;20098;-67
2022/01/22 07:55:43;;;;;;;6.20;1.80;;;6.40;99.90;;;;;;5038327;28;20051;-67
2022/01/22 07:58:10;;;;;;;6.88;1.90;;;6.30;99.90;;;;;;5038115;28;20047;-67
2022/01/22 08:00:35;;;;;;;8.75;2.00;;;6.40;99.90;;;;;;5047731;28;20438;-67
2022/01/22 08:03:01;;;;;;;9.27;2.20;;;6.40;99.90;;;;;;5047527;28;20123;-68
2022/01/22 08:05:27;;;;;;;7.03;1.92;;;6.40;99.90;;;;;;5045123;28;20044;-68
2022/01/22 08:07:53;;;;;;;10.25;2.40;;;6.40;99.90;;;;;;5038682;28;20041;-67
2022/01/22 08:10:18;;;;;;;9.02;2.40;;;6.40;99.90;;;;;;5047803;28;20118;-67
2022/01/22 08:12:48;;;;;;;7.18;2.00;;;6.40;99.90;;;;;;5045070;28;20053;-67
2022/01/22 08:15:15;;;;;;;6.10;2.20;;;6.50;99.90;;;;;;5042874;28;20040;-67
2022/01/22 08:17:41;;;;;;;5.65;1.67;;;6.40;99.90;;;;;;5029667;28;20434;-67
2022/01/22 08:20:07;;;;;;;6.68;1.90;;;6.50;99.90;;;;;;5049070;28;20045;-67
2022/01/22 08:22:33;;;;;;;6.20;1.83;;;6.50;99.90;;;;;;5045919;28;20033;-68
2022/01/22 08:25:00;;;;;;;4.40;1.70;;;6.50;99.90;;;;;;5046847;28;20033;-67
2022/01/22 08:29:52;;;;;;;4.50;1.40;;;6.50;99.90;;;;;;5043241;28;20057;-67
2022/01/22 08:37:46;;;;;;;8.55;2.05;;;6.50;99.90;;;;;;5047278;28;20099;-68
2022/01/22 08:40:12;;;;;;;5.53;2.10;;;6.50;99.90;;;;;;5039204;28;20045;-68
2022/01/22 08:42:38;;;;;;;9.70;2.25;;;6.50;99.90;;;;;;5042211;28;20090;-67
2022/01/22 08:45:05;;;;;;;9.82;2.60;;;6.50;99.90;;;;;;5043448;28;20124;-67
2022/01/22 08:47:31;;;;;;;10.00;2.60;;;6.50;99.90;;;;;;5046943;28;20061;-67
2022/01/22 08:49:57;;;;;;;10.45;2.58;;;6.50;99.90;;;;;;5052321;28;20476;-68
2022/01/22 08:52:27;;;;;;;9.45;2.28;;;6.50;99.90;;;;;;5039218;28;20041;-68
2022/01/22 08:54:53;;;;;;;11.88;2.80;;;6.50;99.90;;;;;;5056406;28;20064;-66
2022/01/22 08:57:18;;;;;;;13.60;2.40;;;6.60;99.90;;;;;;5048327;28;20052;-66
2022/01/22 08:59:45;;;;;;;19.90;2.85;;;6.50;99.90;;;;;;5046044;28;20049;-67
2022/01/22 09:02:11;;;;;;;11.77;2.78;;;6.60;99.90;;;;;;5047146;28;20128;-68
2022/01/22 09:04:37;;;;;;;7.78;2.45;;;6.60;99.90;;;;;;5047453;28;20439;-68
2022/01/22 09:07:02;;;;;;;10.88;2.40;;;6.60;99.90;;;;;;5047342;28;20033;-69
2022/01/22 09:09:29;;;;;;;14.00;2.75;;;6.70;99.90;;;;;;5052978;28;20519;-68
2022/01/22 09:11:55;;;;;;;15.10;2.88;;;6.60;99.90;;;;;;5051675;28;20036;-68
2022/01/22 09:14:21;;;;;;;9.25;2.20;;;6.70;99.90;;;;;;5050420;28;20114;-69
2022/01/22 09:16:49;;;;;;;14.40;2.70;;;6.60;99.90;;;;;;5052013;28;20473;-68
2022/01/22 09:19:14;;;;;;;11.68;2.67;;;6.70;99.90;;;;;;5049689;28;20044;-68
2022/01/22 09:21:43;;;;;;;11.55;3.28;;;6.70;99.90;;;;;;5050966;28;20037;-69
2022/01/22 09:24:10;;;;;;;13.48;3.72;;;6.70;99.90;;;;;;5048085;28;20092;-68
2022/01/22 09:26:37;;;;;;;14.98;3.75;;;6.60;99.90;;;;;;5051351;28;20391;-68
2022/01/22 09:29:03;;;;;;;11.13;3.47;;;6.60;99.90;;;;;;5051193;28;20410;-68
2022/01/22 09:31:31;;;;;;;16.88;3.58;;;6.70;99.90;;;;;;5049000;28;20056;-67
2022/01/22 09:33:59;;;;;;;10.85;3.03;;;6.70;99.90;;;;;;5046665;28;20590;-68
2022/01/22 09:36:26;;;;;;;14.88;3.40;;;6.70;99.90;;;;;;5053685;28;20345;-67
2022/01/22 09:38:53;;;;;;;12.30;3.22;;;6.70;99.90;;;;;;5059310;28;20041;-68
2022/01/22 09:41:19;;;;;;;13.15;3.70;;;6.80;99.90;;;;;;5048967;28;20044;-70
2022/01/22 09:43:45;;;;;;;10.75;3.03;;;6.70;99.90;;;;;;5048998;28;20461;-69
2022/01/22 09:46:12;;;;;;;12.13;2.92;;;6.80;99.90;;;;;;5051206;28;20140;-68
2022/01/22 09:48:42;;;;;;;14.13;3.00;;;6.80;99.90;;;;;;5048068;28;20128;-69
2022/01/22 09:51:08;;;;;;;15.15;3.60;;;6.80;99.90;;;;;;5049915;28;20091;-68
2022/01/22 09:53:35;;;;;;;13.02;3.25;;;6.80;99.90;;;;;;5063005;28;20044;-68
2022/01/22 09:56:00;;;;;;;10.85;3.15;;;6.80;99.90;;;;;;5070137;28;20064;-69
2022/01/22 09:58:26;;;;;;;14.23;3.20;;;6.80;99.90;;;;;;5068824;28;20052;-68
2022/01/22 10:00:51;;;;;;;8.60;3.20;;;6.90;99.90;;;;;;5068273;28;20060;-68
2022/01/22 10:03:20;;;;;;;14.20;3.95;;;6.90;99.90;;;;;;5065106;28;20048;-68
2022/01/22 10:05:45;;;;;;;16.10;4.38;;;6.90;99.90;;;;;;5062123;28;20075;-68
2022/01/22 10:08:25;;;;;;;17.42;4.32;;;6.90;99.90;;;;;;5048705;28;20041;-68
2022/01/22 10:10:52;;;;;;;14.32;4.38;;;6.90;99.90;;;;;;5047725;28;20144;-68
2022/01/22 10:13:38;;;;;;;11.80;4.32;;;6.90;99.90;;;;;;5058136;28;20040;-67
2022/01/22 10:16:15;;;;;;;19.05;5.20;;;7.00;99.90;;;;;;5068905;28;20071;-68
2022/01/22 10:18:41;;;;;;;14.85;4.93;;;7.00;99.90;;;;;;5052454;28;20037;-69
2022/01/22 10:21:13;;;;;;;13.68;4.82;;;7.00;99.90;;;;;;5046016;28;20033;-68
2022/01/22 10:23:39;;;;;;;16.35;4.55;;;7.10;99.90;;;;;;5047989;28;20393;-68
2022/01/22 10:26:12;;;;;;;17.02;4.65;;;7.10;99.90;;;;;;5048586;28;20068;-68
2022/01/22 10:28:47;;;;;;;15.60;5.28;;;7.10;99.90;;;;;;5047873;28;20041;-68
2022/01/22 10:31:22;;;;;;;16.90;5.30;;;7.10;99.90;;;;;;5048154;28;20366;-68
2022/01/22 10:34:05;;;;;;;18.35;6.57;;;7.10;99.90;;;;;;5049334;28;20048;-68
2022/01/22 10:36:31;;;;;;;20.00;7.03;;;7.20;99.90;;;;;;5034438;28;20048;-68
2022/01/22 10:38:57;;;;;;;21.63;8.38;;;7.20;99.90;;;;;;5050282;28;20048;-68
2022/01/22 10:41:34;;;;;;;22.05;8.35;;;7.20;99.90;;;;;;5052393;28;20036;-68
2022/01/22 10:44:00;;;;;;;21.42;8.15;;;7.30;99.90;;;;;;5048752;28;20411;-69
2022/01/22 10:48:59;;;;;;;16.05;5.78;;;7.30;99.90;;;;;;5050917;28;20052;-69
2022/01/22 10:51:26;;;;;;;14.55;5.43;;;7.40;99.90;;;;;;5044201;28;20375;-68
2022/01/22 10:53:56;;;;;;;14.90;5.72;;;7.40;99.90;;;;;;5051274;28;20041;-69
2022/01/22 10:56:23;;;;;;;15.20;5.93;;;7.40;99.90;;;;;;5053589;28;20049;-69
2022/01/22 10:58:56;;;;;;;17.05;6.13;;;7.40;99.90;;;;;;5065155;28;20053;-69
2022/01/22 11:01:25;;;;;;;16.65;5.18;;;7.40;99.90;;;;;;5032252;28;20088;-69
2022/01/22 11:04:09;;;;;;;15.63;5.00;;;7.40;99.90;;;;;;5030370;28;20045;-68
2022/01/22 11:06:35;;;;;;;14.43;4.75;;;7.40;99.90;;;;;;5039932;28;20037;-69
2022/01/22 11:09:01;;;;;;;12.82;4.13;;;7.40;99.90;;;;;;5056363;28;20136;-69
2022/01/22 11:11:26;;;;;;;14.35;4.57;;;7.40;99.90;;;;;;5045526;28;20120;-70
2022/01/22 11:13:52;;;;;;;14.43;4.15;;;7.40;99.90;;;;;;5043307;28;20115;-69
2022/01/22 11:16:19;;;;;;;13.70;4.00;;;7.40;99.90;;;;;;5035973;28;20045;-69
2022/01/22 11:18:49;;;;;;;17.58;5.57;;;7.40;99.90;;;;;;5042318;28;20094;-67
2022/01/22 11:21:16;;;;;;;19.40;7.70;;;7.30;99.90;;;;;;5044148;28;20045;-68
2022/01/22 11:23:43;;;;;;;29.50;10.82;;;7.30;99.90;;;;;;5034105;28;20118;-69
2022/01/22 11:26:09;;;;;;;29.50;12.20;;;7.40;99.90;;;;;;5047392;28;20112;-69
2022/01/22 11:28:38;;;;;;;34.78;13.55;;;7.40;99.90;;;;;;5035139;28;20489;-68
2022/01/22 11:31:05;;;;;;;35.03;12.73;;;7.40;99.90;;;;;;5040916;28;20070;-69
2022/01/22 11:33:34;;;;;;;33.60;12.35;;;7.40;99.90;;;;;;5046565;28;20045;-67
2022/01/22 11:36:09;;;;;;;31.75;11.70;;;7.40;99.90;;;;;;5048505;28;20044;-68
2022/01/22 11:38:41;;;;;;;25.40;11.35;;;7.40;99.90;;;;;;5027161;28;20136;-69
2022/01/22 11:41:19;;;;;;;24.98;11.32;;;7.30;99.90;;;;;;5042800;28;20051;-67
2022/01/22 11:46:30;;;;;;;28.38;12.20;;;7.40;99.90;;;;;;5048136;28;20079;-67
2022/01/22 11:49:17;;;;;;;29.20;13.10;;;7.40;99.90;;;;;;5048593;28;20045;-68
2022/01/22 11:51:46;;;;;;;30.02;13.30;;;7.40;99.90;;;;;;5044251;28;20045;-69
2022/01/22 11:54:13;;;;;;;30.42;12.82;;;7.40;99.90;;;;;;5042320;28;20437;-70
2022/01/22 11:56:44;;;;;;;32.53;12.85;;;7.40;99.90;;;;;;5042112;28;20086;-69
2022/01/22 11:59:12;;;;;;;28.17;11.80;;;7.30;99.90;;;;;;5047243;28;20060;-68
2022/01/22 12:01:37;;;;;;;26.23;10.02;;;7.40;99.90;;;;;;5049801;28;20052;-68
2022/01/22 12:04:04;;;;;;;20.98;9.77;;;7.40;99.90;;;;;;5046734;28;20049;-70
2022/01/22 12:06:30;;;;;;;21.60;8.23;;;7.40;99.90;;;;;;5048696;28;20449;-69
2022/01/22 12:09:13;;;;;;;16.83;5.82;;;7.40;99.90;;;;;;5045829;28;20045;-70
2022/01/22 12:14:47;;;;;;;12.00;4.47;;;7.40;99.90;;;;;;5048034;28;20072;-71
2022/01/22 12:17:19;;;;;;;11.65;3.58;;;7.40;99.90;;;;;;5047047;28;20044;-69
2022/01/22 12:20:03;;;;;;;11.15;3.47;;;7.40;99.90;;;;;;5049892;28;20045;-70
2022/01/22 12:22:30;;;;;;;13.20;3.60;;;7.40;99.90;;;;;;5045270;28;20061;-71
2022/01/22 12:24:55;;;;;;;8.45;3.20;;;7.50;99.90;;;;;;5046518;28;20041;-70
2022/01/22 12:27:48;;;;;;;15.82;3.78;;;7.50;99.90;;;;;;5048174;28;20110;-68
2022/01/22 12:30:16;;;;;;;10.13;4.40;;;7.50;99.90;;;;;;5049468;28;20056;-68
2022/01/22 12:32:50;;;;;;;13.55;4.78;;;7.50;99.90;;;;;;5048444;28;20045;-68
2022/01/22 12:35:18;;;;;;;15.10;5.72;;;7.50;99.90;;;;;;5049161;28;20064;-68
2022/01/22 12:37:50;;;;;;;11.95;4.93;;;7.50;99.90;;;;;;5047196;28;20067;-68
2022/01/22 12:40:33;;;;;;;17.77;5.63;;;7.50;99.90;;;;;;5048302;28;20504;-68
2022/01/22 12:43:07;;;;;;;13.43;3.80;;;7.50;99.90;;;;;;5033058;28;20037;-67
2022/01/22 12:45:35;;;;;;;12.73;4.28;;;7.50;99.90;;;;;;5050401;28;20041;-67
2022/01/22 12:48:02;;;;;;;11.15;3.55;;;7.50;99.90;;;;;;5048879;28;20045;-69
2022/01/22 12:50:32;;;;;;;9.80;3.83;;;7.50;99.90;;;;;;5048426;28;20380;-68
2022/01/22 12:53:04;;;;;;;12.30;4.65;;;7.50;99.90;;;;;;5048352;28;20080;-67
2022/01/22 12:56:12;;;;;;;12.50;4.18;;;7.60;99.90;;;;;;5048181;28;20098;-69
2022/01/22 12:58:38;;;;;;;13.13;4.18;;;7.50;99.90;;;;;;5047459;28;20660;-68
2022/01/22 13:01:08;;;;;;;12.13;4.40;;;7.60;99.90;;;;;;5049510;28;20085;-68
2022/01/22 13:03:35;;;;;;;15.52;5.13;;;7.50;99.90;;;;;;5046129;28;20063;-67
2022/01/22 13:06:02;;;;;;;16.30;6.28;;;7.60;99.90;;;;;;5047901;28;20043;-68
2022/01/22 13:08:29;;;;;;;13.25;5.18;;;7.60;99.90;;;;;;5048356;28;20037;-68
2022/01/22 13:10:57;;;;;;;14.13;5.20;;;7.60;99.90;;;;;;5049003;28;20033;-68
2022/01/22 13:13:23;;;;;;;12.73;4.65;;;7.60;99.90;;;;;;5042170;28;20477;-68
2022/01/22 13:16:01;;;;;;;16.13;5.30;;;7.60;99.90;;;;;;5047296;28;20083;-68
2022/01/22 13:19:00;;;;;;;15.05;4.00;;;7.60;99.90;;;;;;5045959;28;20067;-66
2022/01/22 13:21:29;;;;;;;14.40;3.80;;;7.60;99.90;;;;;;5022488;28;20132;-66
2022/01/22 13:24:03;;;;;;;10.02;3.60;;;7.60;99.90;;;;;;5039722;28;20152;-66
2022/01/22 13:26:46;;;;;;;12.27;3.78;;;7.60;99.90;;;;;;5047504;28;20107;-67
2022/01/22 13:29:24;;;;;;;13.68;4.15;;;7.60;99.90;;;;;;5048482;28;20069;-67
2022/01/22 13:32:08;;;;;;;8.93;3.67;;;7.60;99.90;;;;;;5048077;28;20151;-66
2022/01/22 13:35:05;;;;;;;12.07;4.57;;;7.60;99.90;;;;;;5045782;28;20099;-67
2022/01/22 13:40:33;;;;;;;10.32;4.32;;;7.70;99.90;;;;;;5038282;28;20515;-68
2022/01/22 13:48:31;;;;;;;14.85;5.70;;;7.70;99.90;;;;;;5046225;28;20065;-66
2022/01/22 13:50:58;;;;;;;17.30;5.82;;;7.70;99.90;;;;;;5047380;28;20047;-67
2022/01/22 13:53:25;;;;;;;16.35;6.88;;;7.60;99.90;;;;;;5048152;28;20045;-65
2022/01/22 13:55:58;;;;;;;14.10;5.30;;;7.60;99.90;;;;;;5047241;28;20460;-66
2022/01/22 13:58:23;;;;;;;14.18;4.82;;;7.60;99.90;;;;;;5048255;28;20059;-66
2022/01/22 14:00:49;;;;;;;10.55;4.07;;;7.50;99.90;;;;;;5047464;28;20713;-66
2022/01/22 14:03:40;;;;;;;15.70;5.30;;;7.50;99.90;;;;;;5045629;28;20402;-66
2022/01/22 14:06:02;;;;;;;14.82;5.15;;;7.40;99.90;;;;;;5045220;28;20357;-66
2022/01/22 14:08:34;;;;;;;12.70;4.75;;;7.40;99.90;;;;;;5051742;28;20044;-67
2022/01/22 14:11:05;;;;;;;11.50;3.78;;;7.30;99.90;;;;;;5046501;28;20087;-65
2022/01/22 14:13:30;;;;;;;13.63;3.05;;;7.30;99.90;;;;;;5045013;28;20186;-66
2022/01/22 14:15:56;;;;;;;10.70;2.88;;;7.30;99.90;;;;;;5050635;28;20653;-64
2022/01/22 14:18:27;;;;;;;11.90;2.90;;;7.30;99.90;;;;;;5050483;28;20052;-66
2022/01/22 14:21:08;;;;;;;9.43;2.15;;;7.30;99.90;;;;;;5052392;28;20096;-65
2022/01/22 14:23:36;;;;;;;11.77;2.75;;;7.30;99.90;;;;;;5045232;28;20045;-66
2022/01/22 14:26:16;;;;;;;7.25;2.03;;;7.30;99.90;;;;;;5052400;28;20152;-66
2022/01/22 14:29:02;;;;;;;7.53;2.25;;;7.30;99.90;;;;;;5048963;28;20095;-65
2022/01/22 14:31:33;;;;;;;7.22;1.88;;;7.40;99.90;;;;;;5042949;28;20048;-65
2022/01/22 14:34:04;;;;;;;11.60;1.90;;;7.30;99.90;;;;;;5053831;28;20168;-66
2022/01/22 14:36:36;;;;;;;7.60;2.10;;;7.40;99.90;;;;;;5053866;28;20094;-65
2022/01/22 14:39:27;;;;;;;9.65;2.28;;;7.40;99.90;;;;;;5057884;28;20121;-66
2022/01/22 14:44:51;;;;;;;12.77;3.60;;;7.30;99.90;;;;;;5056953;28;20550;-66
2022/01/22 14:47:21;;;;;;;15.32;3.65;;;7.30;99.90;;;;;;5056378;28;20076;-66
2022/01/22 14:49:51;;;;;;;10.63;3.75;;;7.30;99.90;;;;;;5058539;28;20372;-66
2022/01/22 14:52:21;;;;;;;11.63;3.55;;;7.30;99.90;;;;;;5054978;28;20041;-66